createdAt,value
2019-02-26T08:30:57.936Z,0.78
2019-02-26T08:33:29.259Z,0.69
2019-02-26T08:36:02.427Z,0.74
2019-02-26T08:38:34.112Z,0.74
2019-02-26T08:41:05.383Z,0.84
2019-02-26T08:43:36.606Z,0.94
2019-02-26T08:46:09.318Z,0.80
2019-02-26T08:48:47.883Z,0.83
2019-02-26T08:51:21.494Z,0.89
2019-02-26T08:53:54.693Z,0.95
2019-02-26T08:56:26.238Z,0.99
2019-02-26T08:59:00.793Z,0.97
2019-02-26T09:01:31.568Z,0.94
2019-02-26T09:04:02.765Z,1.02
2019-02-26T09:06:34.031Z,0.87
2019-02-26T09:09:07.331Z,0.84
2019-02-26T09:11:40.734Z,0.83
2019-02-26T09:14:16.735Z,0.81
2019-02-26T09:16:52.562Z,0.83
2019-02-26T09:19:27.847Z,0.91
2019-02-26T09:22:01.180Z,0.84
2019-02-26T09:24:39.701Z,0.75
2019-02-26T09:27:19.639Z,0.83
2019-02-26T09:29:52.455Z,0.84
2019-02-26T09:32:24.189Z,0.80
2019-02-26T09:34:57.416Z,0.86
2019-02-26T09:37:33.390Z,0.92
2019-02-26T09:40:13.593Z,0.97
2019-02-26T09:42:51.683Z,0.94
2019-02-26T09:45:29.637Z,1.12
2019-02-26T09:48:07.009Z,1.08
2019-02-26T09:50:43.434Z,1.04
2019-02-26T09:53:19.218Z,1.07
2019-02-26T09:56:00.407Z,1.18
2019-02-26T09:58:37.476Z,1.07
2019-02-26T10:01:13.554Z,1.18
2019-02-26T10:03:45.221Z,1.19
2019-02-26T10:06:21.212Z,1.19
2019-02-26T10:08:53.335Z,1.19
2019-02-26T10:11:29.462Z,1.25
2019-02-26T10:14:05.293Z,1.21
2019-02-26T10:16:37.291Z,1.18
2019-02-26T10:19:14.810Z,1.16
2019-02-26T10:21:49.227Z,1.28
2019-02-26T10:24:27.101Z,1.46
2019-02-26T10:26:58.667Z,1.32
2019-02-26T10:29:36.633Z,1.51
2019-02-26T10:32:11.241Z,1.48
2019-02-26T10:34:40.901Z,1.47
2019-02-26T10:37:13.982Z,1.34
2019-02-26T10:39:47.936Z,1.48
2019-02-26T10:42:19.981Z,1.46
2019-02-26T10:44:54.088Z,1.53
2019-02-26T10:47:32.747Z,1.54
2019-02-26T10:50:19.487Z,1.45
2019-02-26T10:52:57.634Z,1.35
2019-02-26T10:59:18.802Z,1.44
2019-02-26T11:01:52.062Z,1.64
2019-02-26T11:04:35.707Z,1.80
2019-02-26T11:07:08.752Z,1.76
2019-02-26T11:09:40.382Z,1.61
2019-02-26T11:12:12.250Z,1.72
2019-02-26T11:15:06.806Z,1.77
2019-02-26T11:17:28.937Z,1.73
2019-02-26T11:20:07.694Z,1.61
2019-02-26T14:25:54.724Z,0.58
2019-02-26T14:28:26.824Z,0.85
2019-02-26T14:30:58.083Z,0.82
2019-02-26T14:33:31.985Z,0.85
2019-02-26T14:36:04.330Z,0.85
2019-02-26T14:38:35.519Z,0.86
2019-02-26T14:41:08.336Z,0.85
2019-02-26T14:43:39.608Z,0.88
2019-02-26T14:46:10.801Z,0.86
2019-02-26T14:48:41.955Z,0.86
2019-02-26T14:51:14.742Z,0.82
2019-02-26T14:53:45.891Z,0.88
2019-02-26T14:56:19.396Z,0.84
2019-02-26T14:58:50.701Z,0.89
2019-02-26T15:01:23.539Z,0.88
2019-02-26T15:03:57.423Z,0.90
2019-02-26T15:06:31.943Z,0.93
2019-02-26T15:09:06.423Z,0.95
2019-02-26T15:11:39.684Z,0.95
2019-02-26T15:14:13.523Z,0.99
2019-02-26T15:16:44.852Z,0.99
2019-02-26T15:19:16.162Z,0.97
2019-02-26T15:21:47.421Z,1.02
2019-02-26T15:24:18.640Z,1.05
2019-02-26T15:26:50.426Z,1.00
2019-02-26T15:29:21.604Z,1.03
2019-02-26T15:31:52.965Z,1.00
2019-02-26T15:34:24.327Z,1.03
2019-02-26T15:36:55.610Z,1.02
2019-02-26T15:39:26.948Z,1.01
2019-02-26T15:41:58.218Z,1.00
2019-02-26T15:44:30.650Z,1.01
2019-02-26T15:47:02.365Z,1.03
2019-02-26T15:49:35.800Z,1.04
2019-02-26T15:52:08.384Z,1.05
2019-02-26T15:54:39.827Z,1.04
2019-02-26T15:57:56.941Z,1.07
2019-02-26T16:00:28.247Z,1.05
2019-02-26T16:03:00.555Z,1.03
2019-02-26T16:05:38.227Z,1.03
2019-02-26T16:08:11.850Z,1.08
2019-02-26T16:10:44.837Z,1.06
2019-02-26T16:13:16.142Z,1.09
2019-02-26T16:15:50.776Z,1.06
2019-02-26T16:18:23.533Z,1.08
2019-02-26T16:20:56.539Z,1.06
2019-02-26T16:23:31.477Z,1.08
2019-02-26T16:26:02.809Z,1.06
2019-02-26T16:28:34.975Z,1.07
2019-02-26T16:31:06.401Z,1.04
2019-02-26T16:33:37.737Z,1.07
2019-02-26T16:36:08.973Z,1.07
2019-02-26T16:38:40.216Z,1.06
2019-02-26T16:41:12.738Z,1.09
2019-02-26T16:43:44.857Z,1.08
2019-02-26T16:46:17.112Z,1.08
2019-02-26T16:48:48.757Z,1.10
2019-02-26T16:51:21.856Z,1.08
2019-02-26T16:53:55.851Z,1.12
2019-02-26T16:56:27.101Z,1.10
2019-02-26T16:58:58.560Z,1.15
2019-02-26T17:01:30.232Z,1.14
2019-02-26T17:04:01.963Z,1.09
2019-02-26T17:06:34.280Z,1.12
2019-02-26T17:09:06.684Z,1.19
2019-02-26T17:11:40.439Z,1.19
2019-02-26T17:14:14.823Z,1.17
2019-02-26T17:16:46.153Z,1.18
2019-02-26T17:19:18.903Z,1.19
2019-02-26T17:21:50.186Z,1.19
2019-02-26T17:24:21.455Z,1.18
2019-02-26T17:26:53.121Z,1.20
2019-02-26T17:29:30.683Z,1.21
2019-02-26T17:32:04.798Z,1.22
2019-02-26T17:34:37.635Z,1.25
2019-02-26T17:37:09.004Z,1.23
2019-02-26T17:39:41.466Z,1.25
2019-02-26T17:42:12.703Z,1.28
2019-02-26T17:44:46.128Z,1.19
2019-02-26T17:47:17.429Z,1.27
2019-02-26T17:49:48.936Z,1.28
2019-02-26T17:52:20.286Z,1.25
2019-02-26T17:54:52.013Z,1.22
2019-02-26T17:57:23.480Z,1.28
2019-02-26T17:59:54.906Z,1.30
2019-02-26T18:02:29.200Z,1.27
2019-02-26T18:05:02.201Z,1.31
2019-02-26T18:07:38.387Z,1.32
2019-02-26T18:10:12.532Z,1.38
2019-02-26T18:12:48.371Z,1.34
2019-02-26T18:15:22.291Z,1.32
2019-02-26T18:17:53.528Z,1.33
2019-02-26T18:20:27.741Z,1.32
2019-02-26T18:23:00.208Z,1.34
2019-02-26T18:25:31.657Z,1.34
